Time;durP1;ratioP1;P1;durP2;ratioP2;P2;SDS_P1;SDS_P2;PMS_P1;PMS_P2;Temp;Humidity;BMP_temperature;BMP_pressure;BME280_temperature;BME280_humidity;BME280_pressure;Samples;Min_cycle;Max_cycle;Signal;HPM_P1;HPM_P2
2021/12/27 00:00:41;;;;;;;25.65;10.60;;;5.30;99.90;;;;;;4988877;28;20136;-67
2021/12/27 00:03:07;;;;;;;25.27;10.70;;;5.30;99.90;;;;;;4988720;28;20557;-67
2021/12/27 00:05:33;;;;;;;21.63;9.70;;;5.30;99.90;;;;;;4988954;28;20042;-67
2021/12/27 00:07:58;;;;;;;22.30;9.30;;;5.30;99.90;;;;;;4988790;28;20113;-67
2021/12/27 00:10:27;;;;;;;22.83;9.85;;;5.40;99.90;;;;;;4988689;28;20034;-68
2021/12/27 00:12:54;;;;;;;24.83;10.32;;;5.40;99.90;;;;;;4988559;28;20113;-67
2021/12/27 00:15:19;;;;;;;22.98;9.27;;;5.40;99.90;;;;;;4989406;28;20041;-67
2021/12/27 00:17:48;;;;;;;21.40;9.30;;;5.40;99.90;;;;;;4989002;28;20026;-68
2021/12/27 00:20:17;;;;;;;20.40;8.98;;;5.40;99.90;;;;;;4989389;28;20113;-67
2021/12/27 00:22:45;;;;;;;20.58;8.73;;;5.40;99.90;;;;;;4989442;28;20034;-68
2021/12/27 00:25:11;;;;;;;23.15;9.25;;;5.40;99.90;;;;;;4987687;28;20497;-68
2021/12/27 00:27:37;;;;;;;22.45;9.45;;;5.40;99.90;;;;;;4989214;28;20064;-67
2021/12/27 00:30:04;;;;;;;26.38;9.90;;;5.40;99.90;;;;;;4988142;28;20054;-67
2021/12/27 00:32:30;;;;;;;26.23;9.95;;;5.40;99.90;;;;;;4988648;28;20044;-67
2021/12/27 00:34:56;;;;;;;21.55;9.07;;;5.40;99.90;;;;;;4987255;28;20038;-67
2021/12/27 00:37:21;;;;;;;21.27;8.82;;;5.40;99.90;;;;;;4988252;28;20054;-67
2021/12/27 00:39:47;;;;;;;22.50;8.98;;;5.30;99.90;;;;;;4988557;28;20035;-69
2021/12/27 00:42:13;;;;;;;20.27;8.57;;;5.30;99.90;;;;;;4989029;28;20053;-67
2021/12/27 00:44:38;;;;;;;21.20;8.98;;;5.40;99.90;;;;;;4988474;28;20026;-68
2021/12/27 00:47:04;;;;;;;21.20;9.15;;;5.40;99.90;;;;;;4988319;28;20034;-67
2021/12/27 00:49:30;;;;;;;21.10;9.25;;;5.40;99.90;;;;;;4989417;28;20030;-67
2021/12/27 00:51:56;;;;;;;19.58;8.25;;;5.30;99.90;;;;;;4987837;28;20471;-66
2021/12/27 00:54:22;;;;;;;19.35;8.20;;;5.30;99.90;;;;;;4988792;28;20040;-66
2021/12/27 00:56:48;;;;;;;20.00;8.52;;;5.10;99.90;;;;;;4988675;28;20046;-68
2021/12/27 00:59:13;;;;;;;21.65;8.45;;;5.10;99.90;;;;;;4988188;28;20128;-67
2021/12/27 01:01:39;;;;;;;22.13;9.25;;;5.10;99.90;;;;;;4988826;28;20038;-67
2021/12/27 01:04:11;;;;;;;22.83;10.05;;;5.00;99.90;;;;;;4987988;28;20037;-67
2021/12/27 01:06:37;;;;;;;22.48;8.63;;;5.00;99.90;;;;;;4988591;28;20038;-67
2021/12/27 01:09:04;;;;;;;22.15;8.88;;;5.10;99.90;;;;;;4987790;28;20038;-67
2021/12/27 01:11:42;;;;;;;23.02;9.57;;;5.10;99.90;;;;;;4987234;28;20033;-68
2021/12/27 01:16:38;;;;;;;20.38;8.35;;;5.20;99.90;;;;;;4988725;28;20081;-66
2021/12/27 01:19:05;;;;;;;17.85;8.13;;;5.00;99.90;;;;;;4987765;28;20498;-67
2021/12/27 01:21:31;;;;;;;18.55;9.10;;;5.00;99.90;;;;;;4986882;28;20533;-67
2021/12/27 01:23:57;;;;;;;21.75;9.27;;;4.90;99.90;;;;;;4987721;28;20038;-67
2021/12/27 01:26:25;;;;;;;20.58;8.88;;;5.00;99.90;;;;;;4988077;28;20062;-67
2021/12/27 01:28:56;;;;;;;26.00;9.23;;;5.00;99.90;;;;;;4989965;28;20026;-69
2021/12/27 01:31:22;;;;;;;18.17;7.70;;;5.00;99.90;;;;;;4992413;28;20038;-67
2021/12/27 01:33:48;;;;;;;22.15;9.48;;;5.00;99.90;;;;;;4991957;28;20084;-68
2021/12/27 01:36:15;;;;;;;22.58;9.57;;;5.00;99.90;;;;;;4992335;28;20057;-67
2021/12/27 01:38:41;;;;;;;21.38;9.65;;;5.00;99.90;;;;;;4984707;28;20034;-68
2021/12/27 01:41:09;;;;;;;21.20;8.73;;;5.10;99.90;;;;;;4991328;28;20027;-67
2021/12/27 01:43:36;;;;;;;21.88;9.60;;;5.10;99.90;;;;;;4992346;28;20104;-66
2021/12/27 01:46:03;;;;;;;23.85;9.70;;;5.10;99.90;;;;;;4991321;28;20045;-67
2021/12/27 01:48:36;;;;;;;21.30;9.13;;;5.10;99.90;;;;;;4992163;28;20058;-67
2021/12/27 01:51:03;;;;;;;27.55;9.93;;;5.10;99.90;;;;;;4990536;28;20073;-68
2021/12/27 01:53:30;;;;;;;22.77;9.73;;;5.20;99.90;;;;;;4991561;28;20092;-67
2021/12/27 01:55:57;;;;;;;23.67;10.20;;;5.20;99.90;;;;;;4989861;28;20451;-67
2021/12/27 01:58:24;;;;;;;24.45;9.70;;;5.20;99.90;;;;;;4991132;28;20392;-67
2021/12/27 02:00:53;;;;;;;23.30;10.20;;;5.30;99.90;;;;;;4991785;28;20030;-69
2021/12/27 02:03:21;;;;;;;38.88;11.00;;;5.20;99.90;;;;;;4992129;28;20434;-65
2021/12/27 02:05:47;;;;;;;141.15;11.88;;;5.20;99.90;;;;;;4991524;28;20046;-67
2021/12/27 02:08:13;;;;;;;28.73;9.63;;;5.10;99.90;;;;;;4990363;28;20042;-67
2021/12/27 02:10:40;;;;;;;19.17;8.40;;;5.10;99.90;;;;;;4991805;28;20038;-67
2021/12/27 02:13:06;;;;;;;21.17;8.75;;;5.10;99.90;;;;;;4991024;28;20169;-67
2021/12/27 02:15:32;;;;;;;21.42;9.55;;;5.10;99.90;;;;;;4991872;28;20125;-67
2021/12/27 02:17:57;;;;;;;23.40;9.43;;;5.00;99.90;;;;;;4990511;28;20030;-67
2021/12/27 02:20:26;;;;;;;20.35;8.40;;;5.00;99.90;;;;;;4991318;28;20033;-67
2021/12/27 02:22:55;;;;;;;20.88;9.20;;;5.10;99.90;;;;;;4991441;28;20034;-69
2021/12/27 02:25:22;;;;;;;21.80;9.75;;;5.00;99.90;;;;;;4991088;28;20050;-67
2021/12/27 02:27:50;;;;;;;23.13;9.73;;;5.00;99.90;;;;;;4973774;28;20026;-67
2021/12/27 02:30:17;;;;;;;23.20;9.93;;;5.00;99.90;;;;;;4990928;28;20041;-65
2021/12/27 02:32:52;;;;;;;23.00;9.88;;;5.00;99.90;;;;;;4991857;28;20108;-67
2021/12/27 02:35:32;;;;;;;25.70;10.23;;;5.10;99.90;;;;;;4990695;28;20093;-67
2021/12/27 02:38:00;;;;;;;19.83;8.75;;;5.20;99.90;;;;;;4989535;28;20244;-67
2021/12/27 02:40:28;;;;;;;20.55;9.65;;;5.20;99.90;;;;;;4989758;28;20053;-67
2021/12/27 02:43:05;;;;;;;19.65;8.65;;;5.10;99.90;;;;;;4990125;28;20160;-69
2021/12/27 02:45:39;;;;;;;18.25;8.57;;;5.10;99.90;;;;;;4990896;28;20510;-67
2021/12/27 02:48:06;;;;;;;17.75;8.15;;;5.10;99.90;;;;;;4990431;28;20116;-67
2021/12/27 02:50:32;;;;;;;22.33;9.52;;;5.10;99.90;;;;;;4989468;28;20030;-68
2021/12/27 02:52:59;;;;;;;21.80;9.73;;;4.90;99.90;;;;;;4989660;28;20438;-67
2021/12/27 02:55:26;;;;;;;28.83;10.13;;;4.80;99.90;;;;;;4990658;28;20066;-67
2021/12/27 02:57:52;;;;;;;25.67;10.05;;;4.80;99.90;;;;;;4990726;28;20467;-68
2021/12/27 03:00:24;;;;;;;25.88;10.65;;;4.80;99.90;;;;;;4990006;28;20037;-67
2021/12/27 03:02:50;;;;;;;24.55;10.20;;;4.70;99.90;;;;;;4990677;28;20091;-67
2021/12/27 03:05:18;;;;;;;25.60;10.48;;;4.70;99.90;;;;;;4990284;28;20030;-67
2021/12/27 03:07:45;;;;;;;25.67;10.52;;;4.60;99.90;;;;;;4990016;28;20026;-67
2021/12/27 03:10:14;;;;;;;23.80;10.40;;;4.50;99.90;;;;;;4990076;28;20030;-67
2021/12/27 03:12:40;;;;;;;22.88;9.75;;;4.40;99.90;;;;;;4990621;28;20061;-67
2021/12/27 03:15:08;;;;;;;23.10;10.18;;;4.40;99.90;;;;;;4989637;28;20092;-67
2021/12/27 03:17:34;;;;;;;25.70;9.75;;;4.30;99.90;;;;;;4991092;28;20034;-66
2021/12/27 03:19:59;;;;;;;23.10;9.88;;;4.30;99.90;;;;;;4990084;28;20035;-67
2021/12/27 03:22:25;;;;;;;22.50;10.02;;;4.20;99.90;;;;;;4990450;28;20438;-67
2021/12/27 03:24:52;;;;;;;21.75;9.43;;;4.30;99.90;;;;;;4989021;28;20437;-66
2021/12/27 03:27:17;;;;;;;22.70;9.57;;;4.30;99.90;;;;;;4988958;28;20210;-67
2021/12/27 03:29:43;;;;;;;23.20;9.45;;;4.20;99.90;;;;;;4990213;28;20459;-67
2021/12/27 03:32:08;;;;;;;25.05;9.90;;;4.20;99.90;;;;;;4989080;28;20030;-67
2021/12/27 03:34:41;;;;;;;22.55;9.35;;;4.20;99.90;;;;;;4991604;28;20043;-67
2021/12/27 03:37:07;;;;;;;23.83;8.93;;;4.20;99.90;;;;;;4977249;28;20162;-67
2021/12/27 03:39:32;;;;;;;22.95;9.40;;;4.30;99.90;;;;;;4970518;28;20121;-67
2021/12/27 03:41:58;;;;;;;24.02;9.05;;;4.30;99.90;;;;;;4969994;28;20113;-68
2021/12/27 03:44:24;;;;;;;24.33;10.18;;;4.30;99.90;;;;;;4969877;28;20479;-66
2021/12/27 03:46:49;;;;;;;23.48;9.75;;;4.30;99.90;;;;;;4970228;28;20031;-67
2021/12/27 03:49:15;;;;;;;22.23;9.63;;;4.30;99.90;;;;;;4969991;28;20027;-67
2021/12/27 03:51:43;;;;;;;22.20;9.00;;;4.20;99.90;;;;;;4969667;28;20038;-66
2021/12/27 03:54:09;;;;;;;209.63;12.73;;;4.20;99.90;;;;;;4969165;28;20479;-66
2021/12/27 03:56:35;;;;;;;29.63;7.70;;;4.20;99.90;;;;;;4968800;28;20043;-67
2021/12/27 03:59:20;;;;;;;20.27;8.25;;;3.90;99.90;;;;;;4969767;28;20088;-66
2021/12/27 04:01:46;;;;;;;26.67;8.40;;;3.80;99.90;;;;;;4970200;28;20035;-65
2021/12/27 04:04:12;;;;;;;17.13;7.85;;;3.80;99.90;;;;;;4969262;28;20031;-66
2021/12/27 04:06:37;;;;;;;18.55;7.38;;;3.80;99.90;;;;;;4969278;28;20050;-67
2021/12/27 04:09:03;;;;;;;24.38;9.63;;;3.80;99.90;;;;;;4970338;28;20117;-66
2021/12/27 04:11:29;;;;;;;27.17;10.68;;;4.00;99.90;;;;;;4970014;28;20026;-67
2021/12/27 04:13:55;;;;;;;23.48;9.13;;;4.10;99.90;;;;;;4969820;28;20031;-66
2021/12/27 04:16:21;;;;;;;24.30;10.00;;;4.10;99.90;;;;;;4969396;28;20030;-68
2021/12/27 04:18:47;;;;;;;22.58;9.35;;;4.20;99.90;;;;;;4970176;28;20110;-66
2021/12/27 04:21:13;;;;;;;17.23;7.65;;;4.30;99.90;;;;;;4969253;28;20050;-66
2021/12/27 04:23:39;;;;;;;15.98;7.43;;;4.30;99.90;;;;;;4952393;28;20540;-65
2021/12/27 04:26:05;;;;;;;20.85;8.50;;;4.30;99.90;;;;;;4968944;28;20045;-67
2021/12/27 04:28:31;;;;;;;22.30;8.95;;;4.10;99.90;;;;;;4951343;28;20034;-66
2021/12/27 04:30:56;;;;;;;23.30;9.57;;;4.20;99.90;;;;;;4969602;28;20031;-69
2021/12/27 04:33:22;;;;;;;24.17;9.48;;;4.30;99.90;;;;;;4969016;28;20035;-67
2021/12/27 04:35:48;;;;;;;17.30;7.18;;;4.40;99.90;;;;;;4968686;28;20042;-66
2021/12/27 04:38:15;;;;;;;14.85;7.15;;;4.40;99.90;;;;;;4950768;28;20035;-67
2021/12/27 04:40:43;;;;;;;36.55;7.25;;;4.20;99.90;;;;;;4969808;28;20042;-65
2021/12/27 04:43:13;;;;;;;13.23;6.25;;;4.10;99.90;;;;;;4968750;28;20033;-67
2021/12/27 04:45:40;;;;;;;20.63;8.43;;;4.00;99.90;;;;;;4969392;28;20042;-66
2021/12/27 04:48:06;;;;;;;24.65;9.25;;;4.00;99.90;;;;;;4968347;28;20037;-65
2021/12/27 04:50:33;;;;;;;33.58;7.70;;;4.00;99.90;;;;;;4969108;28;20026;-66
2021/12/27 04:52:58;;;;;;;28.98;7.03;;;4.00;99.90;;;;;;4969014;28;20035;-69
2021/12/27 04:55:26;;;;;;;18.20;7.75;;;3.80;99.90;;;;;;4951374;28;20042;-67
2021/12/27 04:57:53;;;;;;;18.58;7.43;;;3.70;99.90;;;;;;4961380;28;20110;-66
2021/12/27 05:00:18;;;;;;;16.33;7.40;;;3.60;99.90;;;;;;4969015;28;20030;-66
2021/12/27 05:02:44;;;;;;;17.63;7.82;;;3.60;99.90;;;;;;4969265;28;20034;-67
2021/12/27 05:05:10;;;;;;;17.58;7.55;;;3.50;99.90;;;;;;4968551;28;20039;-67
2021/12/27 05:07:36;;;;;;;22.80;9.20;;;3.40;99.90;;;;;;4969327;28;20041;-66
2021/12/27 05:10:03;;;;;;;21.23;9.13;;;3.50;99.90;;;;;;4968559;28;20470;-66
2021/12/27 05:12:29;;;;;;;42.47;9.10;;;3.60;99.90;;;;;;4969496;28;20101;-67
2021/12/27 05:14:54;;;;;;;17.45;7.10;;;3.60;99.90;;;;;;4969601;28;20122;-67
2021/12/27 05:17:20;;;;;;;19.83;7.82;;;3.50;99.90;;;;;;4968476;28;20518;-67
2021/12/27 05:19:45;;;;;;;201.05;10.57;;;3.40;99.90;;;;;;4968715;28;20043;-66
2021/12/27 05:22:12;;;;;;;19.42;6.53;;;3.30;99.90;;;;;;4969066;28;20035;-65
2021/12/27 05:24:38;;;;;;;164.18;9.25;;;3.20;99.90;;;;;;4968922;28;20037;-67
2021/12/27 05:27:04;;;;;;;15.07;5.50;;;3.00;99.90;;;;;;4968406;28;20026;-70
2021/12/27 05:29:30;;;;;;;90.50;7.00;;;3.00;99.90;;;;;;4968947;28;20048;-68
2021/12/27 05:32:01;;;;;;;19.13;4.93;;;2.90;99.90;;;;;;4969246;28;20035;-66
2021/12/27 05:34:28;;;;;;;25.08;6.40;;;2.90;99.90;;;;;;4968325;28;20031;-67
2021/12/27 05:36:53;;;;;;;26.23;6.30;;;2.90;99.90;;;;;;4971153;28;20086;-67
2021/12/27 05:39:22;;;;;;;41.17;5.03;;;2.80;99.90;;;;;;4967728;28;20121;-67
2021/12/27 05:41:50;;;;;;;10.45;4.95;;;2.80;99.90;;;;;;4969704;28;20047;-66
2021/12/27 05:44:17;;;;;;;11.80;5.32;;;2.80;99.90;;;;;;4950935;28;20126;-67
2021/12/27 05:46:43;;;;;;;15.68;6.70;;;2.70;99.90;;;;;;4968265;28;20062;-67
2021/12/27 05:49:09;;;;;;;9.70;5.10;;;2.70;99.90;;;;;;4968351;28;20093;-66
2021/12/27 05:51:36;;;;;;;96.15;6.68;;;2.60;99.90;;;;;;4968874;28;20475;-66
2021/12/27 05:54:03;;;;;;;46.42;4.80;;;2.60;99.90;;;;;;4968544;28;20023;-68
2021/12/27 05:56:29;;;;;;;12.60;4.72;;;2.50;99.90;;;;;;4968282;28;20042;-66
2021/12/27 05:58:55;;;;;;;9.85;4.13;;;2.50;99.90;;;;;;4950683;28;20109;-67
2021/12/27 06:01:20;;;;;;;10.00;4.70;;;2.50;99.90;;;;;;4967627;28;20372;-65
2021/12/27 06:03:46;;;;;;;10.45;4.72;;;2.40;99.90;;;;;;4968613;28;20549;-65
2021/12/27 06:06:15;;;;;;;10.65;4.80;;;2.40;99.90;;;;;;4967804;28;20038;-67
2021/12/27 06:08:41;;;;;;;11.05;4.63;;;2.50;99.90;;;;;;4968451;28;20050;-67
2021/12/27 06:11:06;;;;;;;25.35;9.95;;;2.50;99.90;;;;;;4967987;28;20039;-68
2021/12/27 06:13:32;;;;;;;20.73;9.18;;;2.50;99.90;;;;;;4968237;28;20041;-68
2021/12/27 06:15:58;;;;;;;21.48;7.70;;;2.60;99.90;;;;;;4972045;28;20113;-67
2021/12/27 06:18:24;;;;;;;21.73;8.32;;;2.70;99.90;;;;;;4970804;28;20114;-67
2021/12/27 06:20:50;;;;;;;21.63;8.65;;;3.00;99.90;;;;;;4971540;28;20499;-68
2021/12/27 06:23:15;;;;;;;24.95;9.25;;;3.30;99.90;;;;;;4971063;28;20118;-78
2021/12/27 06:25:43;;;;;;;16.08;7.22;;;3.50;99.90;;;;;;4973184;28;20042;-77
2021/12/27 06:28:09;;;;;;;17.45;5.57;;;3.40;99.90;;;;;;4970501;28;20336;-79
2021/12/27 06:30:36;;;;;;;9.90;4.85;;;3.10;99.90;;;;;;4972267;28;20035;-77
2021/12/27 06:33:01;;;;;;;12.00;5.65;;;2.90;99.90;;;;;;4972157;28;20034;-77
2021/12/27 06:35:27;;;;;;;13.30;6.57;;;2.80;99.90;;;;;;4971459;28;20513;-77
2021/12/27 06:37:53;;;;;;;19.95;7.72;;;2.80;99.90;;;;;;4988959;28;20050;-76
2021/12/27 06:40:19;;;;;;;13.95;6.70;;;2.90;99.90;;;;;;4990046;28;20038;-77
2021/12/27 06:42:46;;;;;;;13.13;6.53;;;2.90;99.90;;;;;;4991152;28;20466;-78
2021/12/27 06:45:12;;;;;;;13.98;6.03;;;3.00;99.90;;;;;;4989229;28;20065;-78
2021/12/27 06:47:38;;;;;;;11.15;5.25;;;2.90;99.90;;;;;;4990370;28;20034;-78
2021/12/27 06:50:05;;;;;;;14.38;5.95;;;2.90;99.90;;;;;;4991308;28;20398;-77
2021/12/27 06:52:31;;;;;;;15.57;6.38;;;2.80;99.90;;;;;;4973031;28;20069;-78
2021/12/27 06:54:57;;;;;;;13.25;5.45;;;2.90;99.90;;;;;;4990308;28;20442;-79
2021/12/27 06:57:23;;;;;;;14.00;6.25;;;2.90;99.90;;;;;;4990271;28;20439;-79
2021/12/27 06:59:48;;;;;;;20.10;7.78;;;2.90;99.90;;;;;;4989967;28;20034;-78
2021/12/27 07:02:14;;;;;;;20.98;8.30;;;3.00;99.90;;;;;;4989732;28;20030;-74
2021/12/27 07:04:40;;;;;;;20.85;8.93;;;3.20;99.90;;;;;;4971722;28;20442;-78
2021/12/27 07:07:05;;;;;;;13.38;6.50;;;3.10;99.90;;;;;;4990405;28;20376;-78
2021/12/27 07:09:31;;;;;;;13.07;6.05;;;3.00;99.90;;;;;;4990720;28;20065;-77
2021/12/27 07:11:57;;;;;;;16.23;7.68;;;2.90;99.90;;;;;;4990082;28;20026;-78
2021/12/27 07:14:23;;;;;;;17.77;8.18;;;2.80;99.90;;;;;;4972640;28;20022;-78
2021/12/27 07:16:48;;;;;;;19.38;9.68;;;2.80;99.90;;;;;;4989919;28;20522;-77
2021/12/27 07:19:14;;;;;;;17.98;8.27;;;2.70;99.90;;;;;;4988579;28;20065;-77
2021/12/27 07:21:40;;;;;;;18.30;8.48;;;2.70;99.90;;;;;;4989435;28;20475;-78
2021/12/27 07:24:05;;;;;;;20.08;8.30;;;2.60;99.90;;;;;;4989935;28;20030;-76
2021/12/27 07:26:31;;;;;;;17.83;8.73;;;2.60;99.90;;;;;;4989070;28;20557;-75
2021/12/27 07:28:57;;;;;;;18.83;8.40;;;2.70;99.90;;;;;;4987113;28;20103;-78
2021/12/27 07:31:22;;;;;;;19.75;7.97;;;2.60;99.90;;;;;;4988999;28;20037;-77
2021/12/27 07:33:49;;;;;;;20.60;8.32;;;2.70;99.90;;;;;;4996706;28;20149;-76
2021/12/27 07:36:14;;;;;;;23.60;9.23;;;2.90;99.90;;;;;;4990222;28;20043;-75
2021/12/27 07:38:41;;;;;;;25.73;9.10;;;3.20;99.90;;;;;;4970103;28;20034;-77
2021/12/27 07:41:07;;;;;;;24.95;9.52;;;3.50;99.90;;;;;;4970831;28;20026;-77
2021/12/27 07:43:33;;;;;;;26.50;10.38;;;3.70;99.90;;;;;;4969957;28;20515;-77
2021/12/27 07:45:59;;;;;;;24.98;9.20;;;3.70;99.90;;;;;;4970167;28;20489;-77
2021/12/27 07:48:24;;;;;;;22.00;9.00;;;3.70;99.90;;;;;;4971083;28;20040;-77
2021/12/27 07:50:50;;;;;;;24.92;10.10;;;3.80;99.90;;;;;;4971193;28;20027;-75
2021/12/27 07:53:16;;;;;;;24.17;10.02;;;3.90;99.90;;;;;;4968294;28;20137;-76
2021/12/27 07:55:42;;;;;;;22.20;9.00;;;4.00;99.90;;;;;;4952874;28;20442;-75
2021/12/27 07:58:08;;;;;;;40.80;9.10;;;4.10;99.90;;;;;;4969766;28;20038;-78
2021/12/27 08:00:33;;;;;;;17.75;7.78;;;3.90;99.90;;;;;;4968644;28;20077;-77
2021/12/27 08:02:59;;;;;;;26.90;9.13;;;3.60;99.90;;;;;;4952950;28;20038;-77
2021/12/27 08:05:25;;;;;;;24.38;9.63;;;3.50;99.90;;;;;;4968930;28;20035;-82
2021/12/27 08:07:51;;;;;;;26.15;10.63;;;3.40;99.90;;;;;;4952742;28;20027;-76
2021/12/27 08:10:16;;;;;;;19.17;8.75;;;3.30;99.90;;;;;;4969115;28;20042;-75
2021/12/27 08:12:44;;;;;;;26.45;10.95;;;3.10;99.90;;;;;;4964829;28;20038;-74
2021/12/27 08:15:11;;;;;;;94.05;16.85;;;3.10;99.90;;;;;;4968171;28;20763;-72
2021/12/27 08:17:38;;;;;;;28.25;11.38;;;3.10;99.90;;;;;;4966892;28;20023;-74
2021/12/27 08:20:06;;;;;;;23.65;8.93;;;3.00;99.90;;;;;;4966553;28;20045;-74
2021/12/27 08:22:32;;;;;;;24.92;9.75;;;2.90;99.90;;;;;;4963345;28;20521;-74
2021/12/27 08:24:58;;;;;;;26.17;10.43;;;3.00;99.90;;;;;;4967321;28;20058;-76
2021/12/27 08:27:26;;;;;;;25.38;10.32;;;3.00;99.90;;;;;;4967880;28;20105;-74
2021/12/27 08:29:52;;;;;;;24.60;10.60;;;3.10;99.90;;;;;;4968172;28;20122;-73
2021/12/27 08:32:18;;;;;;;24.08;10.45;;;3.10;99.90;;;;;;4948143;28;20031;-74
2021/12/27 08:34:44;;;;;;;31.92;12.63;;;3.20;99.90;;;;;;4969529;28;20628;-73
2021/12/27 08:37:10;;;;;;;27.23;11.60;;;3.20;99.90;;;;;;4978703;28;20073;-73
2021/12/27 08:39:38;;;;;;;24.27;10.60;;;3.30;99.90;;;;;;4987073;28;20597;-73
2021/12/27 08:42:07;;;;;;;25.02;10.25;;;3.40;99.90;;;;;;4985943;28;20694;-74
2021/12/27 08:44:37;;;;;;;22.63;9.45;;;3.50;99.90;;;;;;4988000;28;20026;-73
2021/12/27 08:47:03;;;;;;;37.60;15.55;;;3.60;99.90;;;;;;4984520;28;20097;-74
2021/12/27 08:49:29;;;;;;;45.70;20.77;;;3.60;99.90;;;;;;4983632;28;20081;-72
2021/12/27 08:51:54;;;;;;;38.78;16.35;;;3.70;99.90;;;;;;4980216;28;20030;-74
2021/12/27 08:54:20;;;;;;;26.23;10.57;;;3.80;99.90;;;;;;4978730;28;20110;-73
2021/12/27 08:56:46;;;;;;;33.35;14.63;;;3.90;99.90;;;;;;4983025;28;20077;-71
2021/12/27 08:59:11;;;;;;;28.13;12.60;;;3.90;99.90;;;;;;4987504;28;20109;-70
2021/12/27 09:01:37;;;;;;;35.20;14.50;;;4.00;99.90;;;;;;4985756;28;20029;-70
2021/12/27 09:04:04;;;;;;;40.28;17.25;;;4.00;99.90;;;;;;4966265;28;20026;-66
2021/12/27 09:06:33;;;;;;;29.67;11.57;;;4.10;99.90;;;;;;4970704;28;20077;-65
2021/12/27 09:08:59;;;;;;;30.25;13.48;;;4.10;99.90;;;;;;4977153;28;20041;-66
2021/12/27 09:11:26;;;;;;;32.60;15.30;;;4.10;99.90;;;;;;4969430;28;20050;-66
2021/12/27 09:13:52;;;;;;;32.67;14.70;;;4.30;99.90;;;;;;4970471;28;20245;-67
2021/12/27 09:16:17;;;;;;;32.10;14.98;;;4.60;99.90;;;;;;4974302;28;20449;-71
2021/12/27 09:18:43;;;;;;;34.13;14.98;;;4.80;99.90;;;;;;4969295;28;20062;-71
2021/12/27 09:21:09;;;;;;;31.85;14.77;;;4.90;99.90;;;;;;4977406;28;20029;-70
2021/12/27 09:23:35;;;;;;;33.15;13.25;;;5.00;99.90;;;;;;4965643;28;20058;-72
2021/12/27 09:26:01;;;;;;;29.58;12.50;;;5.00;99.90;;;;;;4957066;28;20043;-73
2021/12/27 09:28:27;;;;;;;26.75;12.65;;;5.00;99.90;;;;;;4960153;28;20037;-69
2021/12/27 09:30:52;;;;;;;29.02;12.77;;;5.00;99.90;;;;;;4966889;28;20039;-69
2021/12/27 09:33:18;;;;;;;35.00;12.90;;;4.90;99.90;;;;;;4966408;28;20042;-72
2021/12/27 09:35:44;;;;;;;28.33;12.23;;;5.10;99.90;;;;;;4972165;28;20081;-71
2021/12/27 09:38:11;;;;;;;20.20;9.35;;;5.30;99.90;;;;;;4967058;28;20053;-69
2021/12/27 09:40:37;;;;;;;26.65;10.80;;;5.40;99.90;;;;;;4965748;28;20058;-70
2021/12/27 09:43:03;;;;;;;33.35;12.02;;;5.40;99.90;;;;;;4967074;28;20051;-70
2021/12/27 09:45:29;;;;;;;33.53;11.63;;;5.60;99.90;;;;;;4966264;28;20093;-69
2021/12/27 09:47:55;;;;;;;37.50;13.10;;;5.70;99.90;;;;;;4959599;28;20031;-69
2021/12/27 09:50:28;;;;;;;33.72;12.95;;;5.90;99.90;;;;;;4967399;28;20081;-71
2021/12/27 09:52:54;;;;;;;38.05;13.70;;;6.00;99.90;;;;;;4970215;28;20406;-69
2021/12/27 09:55:20;;;;;;;31.65;13.25;;;6.10;99.90;;;;;;4983370;28;20038;-70
2021/12/27 09:57:46;;;;;;;31.73;12.30;;;6.20;99.90;;;;;;4965025;28;20386;-68
2021/12/27 10:00:13;;;;;;;30.15;12.32;;;6.20;99.90;;;;;;4971299;28;20037;-70
2021/12/27 10:02:40;;;;;;;27.60;11.40;;;6.30;99.90;;;;;;4968182;28;20033;-71
2021/12/27 10:05:07;;;;;;;34.05;12.02;;;6.30;99.90;;;;;;4970046;28;20035;-69
2021/12/27 10:07:41;;;;;;;21.40;9.70;;;6.40;99.90;;;;;;4970259;28;20081;-71
2021/12/27 10:10:09;;;;;;;29.88;11.68;;;6.50;99.90;;;;;;4971898;28;20049;-71
2021/12/27 10:12:36;;;;;;;38.53;15.18;;;6.60;99.90;;;;;;4965672;28;20089;-70
2021/12/27 10:15:06;;;;;;;29.42;10.98;;;6.70;99.90;;;;;;4971874;28;20030;-70
2021/12/27 10:17:37;;;;;;;31.15;12.05;;;7.00;99.90;;;;;;4971421;28;20079;-69
2021/12/27 10:20:09;;;;;;;36.38;13.23;;;7.10;99.90;;;;;;4971275;28;20039;-71
2021/12/27 10:22:44;;;;;;;26.63;11.00;;;7.30;99.90;;;;;;4965969;28;20038;-69
2021/12/27 10:25:23;;;;;;;27.85;11.38;;;7.40;99.90;;;;;;4972070;28;20031;-71
2021/12/27 10:27:53;;;;;;;27.45;10.82;;;7.40;99.90;;;;;;4970117;28;20046;-71
2021/12/27 10:30:22;;;;;;;26.75;11.50;;;7.50;99.90;;;;;;4971548;28;20050;-71
2021/12/27 10:33:14;;;;;;;33.30;12.10;;;7.50;99.90;;;;;;4971865;28;20051;-71
2021/12/27 10:35:42;;;;;;;37.75;14.02;;;7.50;99.90;;;;;;4968612;28;20629;-70
2021/12/27 10:38:24;;;;;;;32.40;12.80;;;7.60;99.90;;;;;;4971139;28;20051;-71
2021/12/27 10:41:03;;;;;;;26.10;10.68;;;7.80;99.90;;;;;;4971179;28;20030;-71
2021/12/27 10:43:56;;;;;;;27.55;10.95;;;7.80;99.90;;;;;;4969795;28;20050;-70
2021/12/27 10:46:21;;;;;;;25.95;10.43;;;7.80;99.90;;;;;;4971189;28;20073;-72
2021/12/27 10:48:57;;;;;;;28.02;9.82;;;7.80;99.90;;;;;;4966552;28;20058;-71
2021/12/27 10:51:24;;;;;;;24.88;9.75;;;7.90;99.90;;;;;;4968043;28;20094;-71
2021/12/27 10:53:58;;;;;;;30.77;11.70;;;8.00;99.90;;;;;;4971383;28;20023;-71
2021/12/27 10:56:26;;;;;;;29.92;11.85;;;8.20;99.90;;;;;;4968699;28;20038;-70
2021/12/27 10:58:55;;;;;;;38.10;15.23;;;8.40;99.90;;;;;;4970487;28;20050;-69
2021/12/27 11:01:23;;;;;;;37.58;14.68;;;8.50;99.90;;;;;;4967164;28;20054;-70
2021/12/27 11:03:54;;;;;;;33.35;14.60;;;8.60;99.90;;;;;;4970371;28;20058;-70
2021/12/27 11:06:23;;;;;;;35.33;13.02;;;8.70;99.90;;;;;;4970245;28;20049;-72
2021/12/27 11:08:51;;;;;;;22.90;10.13;;;8.70;99.90;;;;;;4969320;28;20058;-71
2021/12/27 11:11:18;;;;;;;31.23;12.55;;;8.80;99.90;;;;;;4969386;28;20113;-70
2021/12/27 11:13:46;;;;;;;34.60;13.00;;;8.90;99.90;;;;;;4970319;28;20046;-70
2021/12/27 11:16:12;;;;;;;32.08;13.20;;;8.90;99.90;;;;;;4970921;28;20045;-69
2021/12/27 11:18:38;;;;;;;38.95;15.10;;;9.00;99.90;;;;;;4968648;28;20468;-70
2021/12/27 11:21:12;;;;;;;32.88;12.45;;;9.00;99.90;;;;;;4971011;28;20376;-70
2021/12/27 11:23:41;;;;;;;27.60;11.35;;;9.10;99.90;;;;;;4970210;28;20045;-70
2021/12/27 11:26:12;;;;;;;34.97;13.30;;;9.20;99.90;;;;;;4969172;28;20081;-70
2021/12/27 11:28:40;;;;;;;58.95;19.00;;;9.20;99.90;;;;;;4970034;28;20477;-70
2021/12/27 11:31:15;;;;;;;60.53;19.48;;;9.20;99.90;;;;;;4970436;28;20118;-71
2021/12/27 11:33:58;;;;;;;33.42;11.82;;;9.40;99.90;;;;;;4968658;28;20031;-71
2021/12/27 11:36:44;;;;;;;33.40;13.25;;;9.40;99.90;;;;;;4961733;28;20091;-70
2021/12/27 11:39:28;;;;;;;55.72;17.13;;;9.40;99.90;;;;;;4949736;29;20373;-70
2021/12/27 11:41:57;;;;;;;33.72;11.43;;;9.30;99.90;;;;;;4950175;29;20038;-70
2021/12/27 11:44:33;;;;;;;47.90;13.27;;;9.50;99.90;;;;;;4933804;29;20047;-70
2021/12/27 11:46:58;;;;;;;51.03;13.27;;;9.40;99.90;;;;;;4950514;29;20043;-70
2021/12/27 11:49:45;;;;;;;201.20;33.90;;;9.50;99.90;;;;;;4949590;29;20089;-72
2021/12/27 11:52:15;;;;;;;25.80;9.70;;;9.50;99.90;;;;;;4949521;29;20037;-71
2021/12/27 11:54:49;;;;;;;18.10;7.45;;;9.40;99.90;;;;;;4951514;29;20122;-70
2021/12/27 11:57:37;;;;;;;17.50;8.13;;;9.20;99.90;;;;;;4950556;29;20436;-71
2021/12/27 12:00:32;;;;;;;17.77;7.60;;;9.20;99.90;;;;;;4950037;29;20042;-70
2021/12/27 12:03:03;;;;;;;16.05;6.53;;;9.30;99.90;;;;;;4949940;29;20467;-70
2021/12/27 12:05:39;;;;;;;18.70;8.30;;;9.60;99.90;;;;;;4948924;29;20043;-71
2021/12/27 12:08:05;;;;;;;17.67;7.88;;;9.50;99.90;;;;;;4948791;29;20487;-71
2021/12/27 12:10:31;;;;;;;18.20;7.95;;;9.40;99.90;;;;;;4948602;29;20051;-70
2021/12/27 12:13:18;;;;;;;16.40;7.13;;;9.00;99.90;;;;;;4932936;29;20031;-70
2021/12/27 12:16:01;;;;;;;16.58;7.30;;;9.00;99.90;;;;;;4949656;29;20039;-71
2021/12/27 12:18:27;;;;;;;15.07;7.38;;;8.90;99.90;;;;;;4935107;29;20035;-71
2021/12/27 12:20:54;;;;;;;17.35;7.63;;;9.10;99.90;;;;;;4950268;29;20039;-71
2021/12/27 12:23:19;;;;;;;16.55;7.45;;;9.00;99.90;;;;;;4948715;29;20042;-71
2021/12/27 12:25:45;;;;;;;17.80;8.23;;;8.90;99.90;;;;;;4948577;29;20039;-70
2021/12/27 12:28:14;;;;;;;18.65;8.18;;;8.70;99.90;;;;;;4951389;29;20062;-71
2021/12/27 12:30:49;;;;;;;19.27;8.63;;;8.50;99.90;;;;;;4948331;29;20035;-72
2021/12/27 12:33:20;;;;;;;16.83;7.55;;;8.40;99.90;;;;;;4950772;29;20389;-70
2021/12/27 12:35:51;;;;;;;13.45;7.28;;;8.20;99.90;;;;;;4947783;29;20039;-71
2021/12/27 12:38:25;;;;;;;14.48;6.97;;;8.10;99.90;;;;;;4950336;29;20515;-70
2021/12/27 12:41:01;;;;;;;15.82;7.10;;;8.20;99.90;;;;;;4947668;29;20035;-70
2021/12/27 12:43:54;;;;;;;15.68;7.28;;;8.20;99.90;;;;;;4947525;28;20046;-72
2021/12/27 12:46:24;;;;;;;16.48;7.03;;;8.30;99.90;;;;;;4941273;28;20055;-68
2021/12/27 12:49:09;;;;;;;15.30;6.72;;;8.30;99.90;;;;;;4944103;29;20405;-72